sensor_id;sensor_type;location;lat;lon;timestamp;P1;durP1;ratioP1;P2;durP2;ratioP2
20283;SDS011;10301;50.832;4.080;2023-03-19T00:02:25;7.57;;;3.67;;
20283;SDS011;10301;50.832;4.080;2023-03-19T00:04:51;6.78;;;3.10;;
20283;SDS011;10301;50.832;4.080;2023-03-19T00:07:16;6.25;;;3.10;;
20283;SDS011;10301;50.832;4.080;2023-03-19T00:09:43;7.97;;;3.45;;
20283;SDS011;10301;50.832;4.080;2023-03-19T00:12:09;7.78;;;3.30;;
20283;SDS011;10301;50.832;4.080;2023-03-19T00:14:36;5.78;;;3.00;;
20283;SDS011;10301;50.832;4.080;2023-03-19T00:17:02;6.07;;;3.08;;
20283;SDS011;10301;50.832;4.080;2023-03-19T00:19:28;6.40;;;3.40;;
20283;SDS011;10301;50.832;4.080;2023-03-19T00:21:54;8.55;;;3.22;;
20283;SDS011;10301;50.832;4.080;2023-03-19T00:24:20;6.97;;;3.05;;
20283;SDS011;10301;50.832;4.080;2023-03-19T00:26:46;8.88;;;3.35;;
20283;SDS011;10301;50.832;4.080;2023-03-19T00:29:12;8.32;;;3.53;;
20283;SDS011;10301;50.832;4.080;2023-03-19T00:31:38;5.25;;;3.13;;
20283;SDS011;10301;50.832;4.080;2023-03-19T00:34:05;7.57;;;3.70;;
20283;SDS011;10301;50.832;4.080;2023-03-19T00:36:32;6.93;;;3.38;;
20283;SDS011;10301;50.832;4.080;2023-03-19T00:38:58;9.40;;;3.42;;
20283;SDS011;10301;50.832;4.080;2023-03-19T00:41:24;7.45;;;4.13;;
20283;SDS011;10301;50.832;4.080;2023-03-19T00:43:54;6.13;;;3.45;;
20283;SDS011;10301;50.832;4.080;2023-03-19T00:46:20;7.25;;;3.70;;
20283;SDS011;10301;50.832;4.080;2023-03-19T00:48:47;6.55;;;3.25;;
20283;SDS011;10301;50.832;4.080;2023-03-19T00:51:15;6.30;;;3.30;;
20283;SDS011;10301;50.832;4.080;2023-03-19T00:53:42;8.75;;;3.92;;
20283;SDS011;10301;50.832;4.080;2023-03-19T00:56:09;9.57;;;3.80;;
20283;SDS011;10301;50.832;4.080;2023-03-19T00:58:36;6.18;;;3.95;;
20283;SDS011;10301;50.832;4.080;2023-03-19T01:01:03;6.68;;;3.70;;
20283;SDS011;10301;50.832;4.080;2023-03-19T01:03:29;6.45;;;4.00;;
20283;SDS011;10301;50.832;4.080;2023-03-19T01:05:54;6.95;;;3.83;;
20283;SDS011;10301;50.832;4.080;2023-03-19T01:08:21;8.23;;;4.53;;
20283;SDS011;10301;50.832;4.080;2023-03-19T01:10:47;9.02;;;4.05;;
20283;SDS011;10301;50.832;4.080;2023-03-19T01:13:12;7.38;;;4.13;;
20283;SDS011;10301;50.832;4.080;2023-03-19T01:15:39;8.43;;;4.10;;
20283;SDS011;10301;50.832;4.080;2023-03-19T01:18:06;9.30;;;5.07;;
20283;SDS011;10301;50.832;4.080;2023-03-19T01:20:32;8.82;;;4.60;;
20283;SDS011;10301;50.832;4.080;2023-03-19T01:23:02;8.23;;;4.07;;
20283;SDS011;10301;50.832;4.080;2023-03-19T01:25:28;6.30;;;3.83;;
20283;SDS011;10301;50.832;4.080;2023-03-19T01:27:55;6.20;;;3.88;;
20283;SDS011;10301;50.832;4.080;2023-03-19T01:30:21;7.05;;;4.03;;
20283;SDS011;10301;50.832;4.080;2023-03-19T01:32:47;10.27;;;4.22;;
20283;SDS011;10301;50.832;4.080;2023-03-19T01:35:13;8.45;;;4.68;;
20283;SDS011;10301;50.832;4.080;2023-03-19T01:37:39;8.68;;;4.80;;
20283;SDS011;10301;50.832;4.080;2023-03-19T01:40:05;7.35;;;4.70;;
20283;SDS011;10301;50.832;4.080;2023-03-19T01:42:33;8.52;;;4.50;;
20283;SDS011;10301;50.832;4.080;2023-03-19T01:45:01;7.85;;;5.00;;
20283;SDS011;10301;50.832;4.080;2023-03-19T01:47:35;9.07;;;4.82;;
20283;SDS011;10301;50.832;4.080;2023-03-19T01:50:03;11.18;;;4.80;;
20283;SDS011;10301;50.832;4.080;2023-03-19T01:52:31;7.07;;;4.55;;
20283;SDS011;10301;50.832;4.080;2023-03-19T01:54:59;8.18;;;4.32;;
20283;SDS011;10301;50.832;4.080;2023-03-19T01:57:28;9.68;;;4.47;;
20283;SDS011;10301;50.832;4.080;2023-03-19T01:59:56;8.73;;;4.95;;
20283;SDS011;10301;50.832;4.080;2023-03-19T02:04:57;7.97;;;5.18;;
20283;SDS011;10301;50.832;4.080;2023-03-19T02:07:32;8.10;;;5.20;;
20283;SDS011;10301;50.832;4.080;2023-03-19T02:09:59;12.70;;;5.82;;
20283;SDS011;10301;50.832;4.080;2023-03-19T02:12:27;10.88;;;5.90;;
20283;SDS011;10301;50.832;4.080;2023-03-19T02:14:53;10.63;;;6.20;;
20283;SDS011;10301;50.832;4.080;2023-03-19T02:17:19;9.88;;;5.88;;
20283;SDS011;10301;50.832;4.080;2023-03-19T02:23:07;10.85;;;5.78;;
20283;SDS011;10301;50.832;4.080;2023-03-19T02:26:01;9.52;;;5.80;;
20283;SDS011;10301;50.832;4.080;2023-03-19T02:28:33;10.73;;;6.05;;
20283;SDS011;10301;50.832;4.080;2023-03-19T02:31:03;10.77;;;6.85;;
20283;SDS011;10301;50.832;4.080;2023-03-19T02:33:29;9.48;;;6.60;;
20283;SDS011;10301;50.832;4.080;2023-03-19T02:35:55;10.27;;;6.75;;
20283;SDS011;10301;50.832;4.080;2023-03-19T02:38:23;10.82;;;6.80;;
20283;SDS011;10301;50.832;4.080;2023-03-19T02:40:56;10.70;;;6.90;;
20283;SDS011;10301;50.832;4.080;2023-03-19T02:43:29;11.07;;;7.30;;
20283;SDS011;10301;50.832;4.080;2023-03-19T02:45:59;10.35;;;6.90;;
20283;SDS011;10301;50.832;4.080;2023-03-19T02:48:26;10.57;;;7.32;;
20283;SDS011;10301;50.832;4.080;2023-03-19T02:50:52;12.35;;;8.18;;
20283;SDS011;10301;50.832;4.080;2023-03-19T02:53:18;14.35;;;7.75;;
20283;SDS011;10301;50.832;4.080;2023-03-19T02:55:44;16.42;;;8.55;;
20283;SDS011;10301;50.832;4.080;2023-03-19T02:58:10;13.98;;;7.93;;
20283;SDS011;10301;50.832;4.080;2023-03-19T03:00:36;11.65;;;7.68;;
20283;SDS011;10301;50.832;4.080;2023-03-19T03:03:01;14.48;;;8.05;;
20283;SDS011;10301;50.832;4.080;2023-03-19T03:05:28;13.45;;;8.60;;
20283;SDS011;10301;50.832;4.080;2023-03-19T03:07:54;13.45;;;8.63;;
20283;SDS011;10301;50.832;4.080;2023-03-19T03:10:19;12.98;;;9.23;;
20283;SDS011;10301;50.832;4.080;2023-03-19T03:12:45;16.50;;;9.35;;
20283;SDS011;10301;50.832;4.080;2023-03-19T03:15:11;13.70;;;9.03;;
20283;SDS011;10301;50.832;4.080;2023-03-19T03:17:37;14.17;;;8.90;;
20283;SDS011;10301;50.832;4.080;2023-03-19T03:20:04;15.00;;;9.13;;
20283;SDS011;10301;50.832;4.080;2023-03-19T03:22:31;16.67;;;9.50;;
20283;SDS011;10301;50.832;4.080;2023-03-19T03:24:57;12.88;;;9.13;;
20283;SDS011;10301;50.832;4.080;2023-03-19T03:27:23;12.50;;;9.07;;
20283;SDS011;10301;50.832;4.080;2023-03-19T03:29:49;14.90;;;8.80;;
20283;SDS011;10301;50.832;4.080;2023-03-19T03:32:14;16.17;;;7.97;;
20283;SDS011;10301;50.832;4.080;2023-03-19T03:34:40;12.40;;;7.93;;
20283;SDS011;10301;50.832;4.080;2023-03-19T03:37:06;10.77;;;6.87;;
20283;SDS011;10301;50.832;4.080;2023-03-19T03:39:32;14.50;;;7.90;;
20283;SDS011;10301;50.832;4.080;2023-03-19T03:41:57;12.53;;;7.87;;
20283;SDS011;10301;50.832;4.080;2023-03-19T03:44:23;14.53;;;7.10;;
20283;SDS011;10301;50.832;4.080;2023-03-19T03:46:49;14.93;;;7.30;;
20283;SDS011;10301;50.832;4.080;2023-03-19T03:49:14;13.17;;;7.90;;
20283;SDS011;10301;50.832;4.080;2023-03-19T03:51:40;14.43;;;7.00;;
20283;SDS011;10301;50.832;4.080;2023-03-19T03:54:06;11.57;;;7.23;;
20283;SDS011;10301;50.832;4.080;2023-03-19T03:56:32;14.67;;;7.67;;
20283;SDS011;10301;50.832;4.080;2023-03-19T03:58:58;12.47;;;7.60;;
20283;SDS011;10301;50.832;4.080;2023-03-19T04:01:23;13.83;;;8.00;;
20283;SDS011;10301;50.832;4.080;2023-03-19T04:03:49;12.93;;;8.33;;
20283;SDS011;10301;50.832;4.080;2023-03-19T04:06:16;12.30;;;8.10;;
20283;SDS011;10301;50.832;4.080;2023-03-19T04:08:45;17.07;;;9.20;;
20283;SDS011;10301;50.832;4.080;2023-03-19T04:11:11;15.77;;;8.93;;
20283;SDS011;10301;50.832;4.080;2023-03-19T04:13:37;15.33;;;8.43;;
20283;SDS011;10301;50.832;4.080;2023-03-19T04:16:06;15.57;;;8.30;;
20283;SDS011;10301;50.832;4.080;2023-03-19T04:18:34;15.77;;;8.33;;
20283;SDS011;10301;50.832;4.080;2023-03-19T04:21:00;14.23;;;7.70;;
20283;SDS011;10301;50.832;4.080;2023-03-19T04:23:26;13.87;;;7.63;;
20283;SDS011;10301;50.832;4.080;2023-03-19T04:25:52;14.27;;;7.70;;
20283;SDS011;10301;50.832;4.080;2023-03-19T04:28:23;18.83;;;8.20;;
20283;SDS011;10301;50.832;4.080;2023-03-19T04:30:48;14.73;;;8.13;;
20283;SDS011;10301;50.832;4.080;2023-03-19T04:33:14;16.83;;;8.07;;
20283;SDS011;10301;50.832;4.080;2023-03-19T04:35:41;13.97;;;7.53;;
20283;SDS011;10301;50.832;4.080;2023-03-19T04:38:07;14.37;;;7.40;;
20283;SDS011;10301;50.832;4.080;2023-03-19T04:40:33;15.73;;;8.03;;
20283;SDS011;10301;50.832;4.080;2023-03-19T04:42:59;15.57;;;7.27;;
20283;SDS011;10301;50.832;4.080;2023-03-19T04:45:24;18.20;;;7.57;;
20283;SDS011;10301;50.832;4.080;2023-03-19T04:47:51;16.20;;;7.80;;
20283;SDS011;10301;50.832;4.080;2023-03-19T04:50:16;14.67;;;7.17;;
20283;SDS011;10301;50.832;4.080;2023-03-19T04:52:43;17.47;;;7.73;;
20283;SDS011;10301;50.832;4.080;2023-03-19T04:55:08;17.80;;;12.60;;
20283;SDS011;10301;50.832;4.080;2023-03-19T04:57:34;17.63;;;7.00;;
20283;SDS011;10301;50.832;4.080;2023-03-19T05:00:00;16.73;;;7.20;;
20283;SDS011;10301;50.832;4.080;2023-03-19T05:02:26;17.30;;;7.33;;
20283;SDS011;10301;50.832;4.080;2023-03-19T05:04:52;16.57;;;7.20;;
20283;SDS011;10301;50.832;4.080;2023-03-19T05:07:18;13.40;;;6.93;;
20283;SDS011;10301;50.832;4.080;2023-03-19T05:09:44;16.57;;;7.47;;
20283;SDS011;10301;50.832;4.080;2023-03-19T05:12:10;13.37;;;6.97;;
20283;SDS011;10301;50.832;4.080;2023-03-19T05:14:37;15.07;;;6.60;;
20283;SDS011;10301;50.832;4.080;2023-03-19T05:17:03;13.87;;;6.83;;
20283;SDS011;10301;50.832;4.080;2023-03-19T05:19:28;16.70;;;7.20;;
20283;SDS011;10301;50.832;4.080;2023-03-19T05:21:54;13.47;;;7.57;;
20283;SDS011;10301;50.832;4.080;2023-03-19T05:24:21;12.10;;;7.03;;
20283;SDS011;10301;50.832;4.080;2023-03-19T05:26:50;18.23;;;7.47;;
20283;SDS011;10301;50.832;4.080;2023-03-19T05:29:16;18.73;;;7.83;;
20283;SDS011;10301;50.832;4.080;2023-03-19T05:31:42;17.20;;;7.97;;
20283;SDS011;10301;50.832;4.080;2023-03-19T05:34:07;14.20;;;7.47;;
20283;SDS011;10301;50.832;4.080;2023-03-19T05:36:33;18.77;;;7.53;;
20283;SDS011;10301;50.832;4.080;2023-03-19T05:38:59;13.43;;;7.30;;
20283;SDS011;10301;50.832;4.080;2023-03-19T05:41:26;16.13;;;6.47;;
20283;SDS011;10301;50.832;4.080;2023-03-19T05:43:51;14.37;;;6.70;;
20283;SDS011;10301;50.832;4.080;2023-03-19T05:46:17;14.57;;;7.53;;
20283;SDS011;10301;50.832;4.080;2023-03-19T05:48:43;15.47;;;6.80;;
20283;SDS011;10301;50.832;4.080;2023-03-19T05:51:08;17.70;;;7.10;;
20283;SDS011;10301;50.832;4.080;2023-03-19T05:53:35;15.67;;;6.83;;
20283;SDS011;10301;50.832;4.080;2023-03-19T05:56:01;15.10;;;6.13;;
20283;SDS011;10301;50.832;4.080;2023-03-19T05:58:27;14.93;;;6.03;;
20283;SDS011;10301;50.832;4.080;2023-03-19T06:00:53;15.00;;;6.17;;
20283;SDS011;10301;50.832;4.080;2023-03-19T06:03:20;11.67;;;6.13;;
20283;SDS011;10301;50.832;4.080;2023-03-19T06:05:49;12.53;;;6.30;;
20283;SDS011;10301;50.832;4.080;2023-03-19T06:08:15;15.67;;;5.97;;
20283;SDS011;10301;50.832;4.080;2023-03-19T06:10:41;14.47;;;5.67;;
20283;SDS011;10301;50.832;4.080;2023-03-19T06:13:07;12.77;;;6.70;;
20283;SDS011;10301;50.832;4.080;2023-03-19T06:15:32;13.30;;;6.50;;
20283;SDS011;10301;50.832;4.080;2023-03-19T06:17:58;15.43;;;6.60;;
20283;SDS011;10301;50.832;4.080;2023-03-19T06:20:24;15.23;;;6.00;;
20283;SDS011;10301;50.832;4.080;2023-03-19T06:22:50;13.87;;;5.57;;
20283;SDS011;10301;50.832;4.080;2023-03-19T06:25:16;13.93;;;5.63;;
20283;SDS011;10301;50.832;4.080;2023-03-19T06:27:41;10.47;;;5.30;;
20283;SDS011;10301;50.832;4.080;2023-03-19T06:30:07;15.73;;;6.17;;
20283;SDS011;10301;50.832;4.080;2023-03-19T06:32:34;15.93;;;6.30;;
20283;SDS011;10301;50.832;4.080;2023-03-19T06:35:00;17.30;;;6.00;;
20283;SDS011;10301;50.832;4.080;2023-03-19T06:37:26;11.67;;;6.07;;
20283;SDS011;10301;50.832;4.080;2023-03-19T06:39:52;19.17;;;6.00;;
20283;SDS011;10301;50.832;4.080;2023-03-19T06:42:19;13.87;;;6.03;;
20283;SDS011;10301;50.832;4.080;2023-03-19T06:44:45;15.53;;;5.67;;
20283;SDS011;10301;50.832;4.080;2023-03-19T06:47:11;14.57;;;5.70;;
20283;SDS011;10301;50.832;4.080;2023-03-19T06:49:38;15.57;;;6.10;;
20283;SDS011;10301;50.832;4.080;2023-03-19T06:52:04;17.20;;;7.17;;
20283;SDS011;10301;50.832;4.080;2023-03-19T06:54:30;17.13;;;6.67;;
20283;SDS011;10301;50.832;4.080;2023-03-19T06:56:56;18.93;;;7.80;;
20283;SDS011;10301;50.832;4.080;2023-03-19T06:59:22;16.37;;;8.47;;
20283;SDS011;10301;50.832;4.080;2023-03-19T07:01:47;14.93;;;6.90;;
20283;SDS011;10301;50.832;4.080;2023-03-19T07:04:13;14.63;;;5.70;;
20283;SDS011;10301;50.832;4.080;2023-03-19T07:06:38;15.67;;;5.43;;
20283;SDS011;10301;50.832;4.080;2023-03-19T07:09:04;21.60;;;6.53;;
20283;SDS011;10301;50.832;4.080;2023-03-19T07:11:30;12.80;;;5.90;;
20283;SDS011;10301;50.832;4.080;2023-03-19T07:13:56;15.97;;;5.00;;
20283;SDS011;10301;50.832;4.080;2023-03-19T07:16:21;15.67;;;5.23;;
20283;SDS011;10301;50.832;4.080;2023-03-19T07:18:47;14.53;;;5.13;;
20283;SDS011;10301;50.832;4.080;2023-03-19T07:21:13;12.03;;;5.03;;
20283;SDS011;10301;50.832;4.080;2023-03-19T07:23:38;15.83;;;5.20;;
20283;SDS011;10301;50.832;4.080;2023-03-19T07:26:05;14.53;;;5.10;;
20283;SDS011;10301;50.832;4.080;2023-03-19T07:28:31;14.63;;;5.00;;
20283;SDS011;10301;50.832;4.080;2023-03-19T07:30:56;17.67;;;5.00;;
20283;SDS011;10301;50.832;4.080;2023-03-19T07:33:22;17.17;;;4.63;;
20283;SDS011;10301;50.832;4.080;2023-03-19T07:35:48;10.63;;;4.30;;
20283;SDS011;10301;50.832;4.080;2023-03-19T07:38:13;12.10;;;5.13;;
20283;SDS011;10301;50.832;4.080;2023-03-19T07:40:39;17.97;;;5.53;;
20283;SDS011;10301;50.832;4.080;2023-03-19T07:43:05;15.87;;;4.63;;
20283;SDS011;10301;50.832;4.080;2023-03-19T07:45:31;15.30;;;4.97;;
20283;SDS011;10301;50.832;4.080;2023-03-19T07:47:56;15.30;;;5.43;;
20283;SDS011;10301;50.832;4.080;2023-03-19T07:50:22;16.67;;;5.17;;
20283;SDS011;10301;50.832;4.080;2023-03-19T07:52:48;20.87;;;5.63;;
20283;SDS011;10301;50.832;4.080;2023-03-19T07:55:15;18.43;;;5.20;;
20283;SDS011;10301;50.832;4.080;2023-03-19T07:57:41;15.83;;;5.67;;
20283;SDS011;10301;50.832;4.080;2023-03-19T08:00:07;13.67;;;5.27;;
20283;SDS011;10301;50.832;4.080;2023-03-19T08:02:34;21.37;;;7.80;;
20283;SDS011;10301;50.832;4.080;2023-03-19T08:05:01;14.90;;;5.80;;
20283;SDS011;10301;50.832;4.080;2023-03-19T08:07:29;15.50;;;5.13;;
20283;SDS011;10301;50.832;4.080;2023-03-19T08:09:55;18.60;;;5.30;;
20283;SDS011;10301;50.832;4.080;2023-03-19T08:12:22;17.43;;;5.13;;
20283;SDS011;10301;50.832;4.080;2023-03-19T08:14:48;19.25;;;6.07;;
20283;SDS011;10301;50.832;4.080;2023-03-19T08:17:13;19.70;;;5.90;;
20283;SDS011;10301;50.832;4.080;2023-03-19T08:19:39;16.05;;;5.15;;
20283;SDS011;10301;50.832;4.080;2023-03-19T08:22:05;17.65;;;5.63;;
20283;SDS011;10301;50.832;4.080;2023-03-19T08:24:32;21.45;;;5.20;;
20283;SDS011;10301;50.832;4.080;2023-03-19T08:26:57;20.63;;;5.50;;
20283;SDS011;10301;50.832;4.080;2023-03-19T08:29:23;18.38;;;5.78;;
20283;SDS011;10301;50.832;4.080;2023-03-19T08:31:52;18.50;;;6.18;;
20283;SDS011;10301;50.832;4.080;2023-03-19T08:34:20;22.15;;;6.43;;
20283;SDS011;10301;50.832;4.080;2023-03-19T08:36:46;21.17;;;6.47;;
20283;SDS011;10301;50.832;4.080;2023-03-19T08:39:12;16.83;;;5.43;;
20283;SDS011;10301;50.832;4.080;2023-03-19T08:41:38;15.02;;;5.57;;
20283;SDS011;10301;50.832;4.080;2023-03-19T08:44:03;22.73;;;5.80;;
20283;SDS011;10301;50.832;4.080;2023-03-19T08:46:29;15.77;;;5.80;;
20283;SDS011;10301;50.832;4.080;2023-03-19T08:48:55;15.57;;;5.68;;
20283;SDS011;10301;50.832;4.080;2023-03-19T08:51:21;14.75;;;5.68;;
20283;SDS011;10301;50.832;4.080;2023-03-19T08:53:50;17.85;;;5.90;;
20283;SDS011;10301;50.832;4.080;2023-03-19T08:56:16;17.08;;;5.40;;
20283;SDS011;10301;50.832;4.080;2023-03-19T08:58:41;15.95;;;4.82;;
20283;SDS011;10301;50.832;4.080;2023-03-19T09:01:08;16.55;;;5.22;;
20283;SDS011;10301;50.832;4.080;2023-03-19T09:03:36;15.05;;;5.68;;
20283;SDS011;10301;50.832;4.080;2023-03-19T09:06:03;14.82;;;4.82;;
20283;SDS011;10301;50.832;4.080;2023-03-19T09:08:31;11.13;;;5.07;;
20283;SDS011;10301;50.832;4.080;2023-03-19T09:10:58;12.27;;;4.47;;
20283;SDS011;10301;50.832;4.080;2023-03-19T09:13:24;15.70;;;4.50;;
20283;SDS011;10301;50.832;4.080;2023-03-19T09:15:50;15.60;;;4.50;;
20283;SDS011;10301;50.832;4.080;2023-03-19T09:18:16;11.38;;;3.53;;
20283;SDS011;10301;50.832;4.080;2023-03-19T09:20:44;17.25;;;4.00;;
20283;SDS011;10301;50.832;4.080;2023-03-19T09:23:10;14.75;;;4.00;;
20283;SDS011;10301;50.832;4.080;2023-03-19T09:25:36;14.20;;;3.63;;
20283;SDS011;10301;50.832;4.080;2023-03-19T09:28:02;13.60;;;4.35;;
20283;SDS011;10301;50.832;4.080;2023-03-19T09:30:28;15.27;;;4.57;;
20283;SDS011;10301;50.832;4.080;2023-03-19T09:32:53;16.13;;;4.65;;
20283;SDS011;10301;50.832;4.080;2023-03-19T09:35:19;15.18;;;4.13;;
20283;SDS011;10301;50.832;4.080;2023-03-19T09:37:46;15.73;;;4.07;;
20283;SDS011;10301;50.832;4.080;2023-03-19T09:40:15;18.30;;;4.30;;
20283;SDS011;10301;50.832;4.080;2023-03-19T09:45:26;16.52;;;4.55;;
20283;SDS011;10301;50.832;4.080;2023-03-19T09:47:54;16.65;;;5.65;;
20283;SDS011;10301;50.832;4.080;2023-03-19T09:50:28;18.27;;;5.80;;
20283;SDS011;10301;50.832;4.080;2023-03-19T09:55:51;15.02;;;6.32;;
20283;SDS011;10301;50.832;4.080;2023-03-19T09:58:26;13.98;;;6.65;;
20283;SDS011;10301;50.832;4.080;2023-03-19T10:00:58;20.02;;;6.63;;
20283;SDS011;10301;50.832;4.080;2023-03-19T10:06:29;17.92;;;7.55;;
20283;SDS011;10301;50.832;4.080;2023-03-19T10:17:02;19.88;;;9.55;;
20283;SDS011;10301;50.832;4.080;2023-03-19T10:19:36;20.48;;;10.07;;
20283;SDS011;10301;50.832;4.080;2023-03-19T10:22:11;20.52;;;10.07;;
20283;SDS011;10301;50.832;4.080;2023-03-19T10:24:43;22.52;;;11.98;;
20283;SDS011;10301;50.832;4.080;2023-03-19T10:27:17;21.67;;;12.10;;
20283;SDS011;10301;50.832;4.080;2023-03-19T10:29:46;22.98;;;13.45;;
20283;SDS011;10301;50.832;4.080;2023-03-19T10:34:41;25.08;;;13.68;;
20283;SDS011;10301;50.832;4.080;2023-03-19T10:37:22;25.13;;;14.60;;
20283;SDS011;10301;50.832;4.080;2023-03-19T10:39:57;30.05;;;16.30;;
20283;SDS011;10301;50.832;4.080;2023-03-19T10:45:27;31.73;;;18.25;;
20283;SDS011;10301;50.832;4.080;2023-03-19T10:47:56;36.40;;;19.02;;
20283;SDS011;10301;50.832;4.080;2023-03-19T10:50:27;34.92;;;18.25;;
20283;SDS011;10301;50.832;4.080;2023-03-19T10:55:30;38.88;;;19.25;;
20283;SDS011;10301;50.832;4.080;2023-03-19T10:58:01;35.42;;;18.05;;
20283;SDS011;10301;50.832;4.080;2023-03-19T11:00:31;36.63;;;17.80;;
20283;SDS011;10301;50.832;4.080;2023-03-19T11:02:59;38.05;;;19.02;;
20283;SDS011;10301;50.832;4.080;2023-03-19T11:05:29;40.33;;;19.25;;
20283;SDS011;10301;50.832;4.080;2023-03-19T11:07:58;36.90;;;18.58;;
20283;SDS011;10301;50.832;4.080;2023-03-19T11:10:27;36.47;;;18.80;;
20283;SDS011;10301;50.832;4.080;2023-03-19T11:12:59;35.53;;;17.73;;
20283;SDS011;10301;50.832;4.080;2023-03-19T11:15:33;31.25;;;18.33;;
20283;SDS011;10301;50.832;4.080;2023-03-19T11:20:58;30.27;;;16.83;;
20283;SDS011;10301;50.832;4.080;2023-03-19T11:23:29;32.00;;;17.35;;
20283;SDS011;10301;50.832;4.080;2023-03-19T11:26:01;26.15;;;14.50;;
20283;SDS011;10301;50.832;4.080;2023-03-19T11:28:27;27.58;;;15.27;;
20283;SDS011;10301;50.832;4.080;2023-03-19T11:45:00;22.92;;;13.07;;
20283;SDS011;10301;50.832;4.080;2023-03-19T11:47:34;26.95;;;13.45;;
20283;SDS011;10301;50.832;4.080;2023-03-19T11:50:37;23.38;;;13.15;;
20283;SDS011;10301;50.832;4.080;2023-03-19T11:53:41;26.48;;;14.30;;
20283;SDS011;10301;50.832;4.080;2023-03-19T12:05:11;26.35;;;13.60;;
20283;SDS011;10301;50.832;4.080;2023-03-19T12:10:51;26.55;;;14.50;;
20283;SDS011;10301;50.832;4.080;2023-03-19T12:18:54;21.98;;;11.63;;
20283;SDS011;10301;50.832;4.080;2023-03-19T12:27:30;21.60;;;12.27;;
20283;SDS011;10301;50.832;4.080;2023-03-19T12:35:33;22.85;;;11.18;;
20283;SDS011;10301;50.832;4.080;2023-03-19T12:46:15;13.80;;;7.40;;
20283;SDS011;10301;50.832;4.080;2023-03-19T12:48:59;10.85;;;6.22;;
20283;SDS011;10301;50.832;4.080;2023-03-19T12:51:35;11.73;;;6.38;;
20283;SDS011;10301;50.832;4.080;2023-03-19T12:54:13;12.18;;;6.57;;
20283;SDS011;10301;50.832;4.080;2023-03-19T13:04:55;13.90;;;6.70;;
20283;SDS011;10301;50.832;4.080;2023-03-19T13:07:30;12.52;;;7.32;;
20283;SDS011;10301;50.832;4.080;2023-03-19T13:10:17;12.63;;;6.82;;
20283;SDS011;10301;50.832;4.080;2023-03-19T13:12:43;15.40;;;7.93;;
20283;SDS011;10301;50.832;4.080;2023-03-19T13:20:15;11.93;;;7.38;;
20283;SDS011;10301;50.832;4.080;2023-03-19T13:22:47;13.07;;;7.22;;
20283;SDS011;10301;50.832;4.080;2023-03-19T13:25:18;10.57;;;7.18;;
20283;SDS011;10301;50.832;4.080;2023-03-19T13:27:52;13.45;;;7.32;;
20283;SDS011;10301;50.832;4.080;2023-03-19T13:30:20;13.18;;;6.80;;
20283;SDS011;10301;50.832;4.080;2023-03-19T13:32:47;13.65;;;7.22;;
20283;SDS011;10301;50.832;4.080;2023-03-19T13:37:57;11.57;;;6.72;;
20283;SDS011;10301;50.832;4.080;2023-03-19T13:40:57;14.25;;;6.65;;
20283;SDS011;10301;50.832;4.080;2023-03-19T13:45:53;12.48;;;6.78;;
20283;SDS011;10301;50.832;4.080;2023-03-19T13:48:38;10.50;;;6.80;;
20283;SDS011;10301;50.832;4.080;2023-03-19T13:54:03;11.15;;;6.72;;
20283;SDS011;10301;50.832;4.080;2023-03-19T13:59:25;14.25;;;6.55;;
20283;SDS011;10301;50.832;4.080;2023-03-19T14:01:53;10.00;;;5.88;;
20283;SDS011;10301;50.832;4.080;2023-03-19T14:04:24;10.77;;;6.22;;
20283;SDS011;10301;50.832;4.080;2023-03-19T14:07:15;11.80;;;6.93;;
20283;SDS011;10301;50.832;4.080;2023-03-19T14:09:46;9.75;;;5.75;;
20283;SDS011;10301;50.832;4.080;2023-03-19T14:12:24;11.35;;;5.75;;
20283;SDS011;10301;50.832;4.080;2023-03-19T14:19:54;6.40;;;3.85;;
20283;SDS011;10301;50.832;4.080;2023-03-19T14:22:34;9.48;;;4.05;;
20283;SDS011;10301;50.832;4.080;2023-03-19T14:27:49;7.30;;;3.60;;
20283;SDS011;10301;50.832;4.080;2023-03-19T14:30:23;8.40;;;4.47;;
20283;SDS011;10301;50.832;4.080;2023-03-19T14:32:55;7.07;;;3.55;;
20283;SDS011;10301;50.832;4.080;2023-03-19T14:35:24;11.10;;;4.60;;
20283;SDS011;10301;50.832;4.080;2023-03-19T14:37:51;9.68;;;3.95;;
20283;SDS011;10301;50.832;4.080;2023-03-19T14:46:26;9.95;;;4.10;;
20283;SDS011;10301;50.832;4.080;2023-03-19T14:51:52;7.25;;;4.10;;
20283;SDS011;10301;50.832;4.080;2023-03-19T14:57:16;11.10;;;4.32;;
20283;SDS011;10301;50.832;4.080;2023-03-19T14:59:43;9.55;;;4.47;;
20283;SDS011;10301;50.832;4.080;2023-03-19T15:02:17;8.73;;;4.43;;
20283;SDS011;10301;50.832;4.080;2023-03-19T15:05:09;8.68;;;4.25;;
20283;SDS011;10301;50.832;4.080;2023-03-19T15:07:47;13.00;;;4.68;;
20283;SDS011;10301;50.832;4.080;2023-03-19T15:10:16;9.17;;;5.10;;
20283;SDS011;10301;50.832;4.080;2023-03-19T15:18:03;11.20;;;5.55;;
20283;SDS011;10301;50.832;4.080;2023-03-19T15:20:44;12.52;;;5.25;;
20283;SDS011;10301;50.832;4.080;2023-03-19T15:23:18;12.02;;;4.80;;
20283;SDS011;10301;50.832;4.080;2023-03-19T15:25:46;12.10;;;5.07;;
20283;SDS011;10301;50.832;4.080;2023-03-19T15:28:21;12.00;;;4.95;;
20283;SDS011;10301;50.832;4.080;2023-03-19T15:30:57;9.82;;;4.78;;
20283;SDS011;10301;50.832;4.080;2023-03-19T15:33:33;11.63;;;5.50;;
20283;SDS011;10301;50.832;4.080;2023-03-19T15:38:34;11.63;;;4.67;;
20283;SDS011;10301;50.832;4.080;2023-03-19T15:41:04;9.93;;;4.53;;
20283;SDS011;10301;50.832;4.080;2023-03-19T15:43:33;12.20;;;5.50;;
20283;SDS011;10301;50.832;4.080;2023-03-19T15:46:01;11.53;;;5.17;;
20283;SDS011;10301;50.832;4.080;2023-03-19T15:48:31;10.80;;;4.80;;
20283;SDS011;10301;50.832;4.080;2023-03-19T15:50:58;10.10;;;5.13;;
20283;SDS011;10301;50.832;4.080;2023-03-19T15:53:28;11.80;;;5.37;;
20283;SDS011;10301;50.832;4.080;2023-03-19T15:55:56;9.50;;;4.13;;
20283;SDS011;10301;50.832;4.080;2023-03-19T15:58:35;13.27;;;5.40;;
20283;SDS011;10301;50.832;4.080;2023-03-19T16:01:05;9.20;;;4.93;;
20283;SDS011;10301;50.832;4.080;2023-03-19T16:03:39;11.53;;;5.17;;
20283;SDS011;10301;50.832;4.080;2023-03-19T16:06:12;10.90;;;4.77;;
20283;SDS011;10301;50.832;4.080;2023-03-19T16:08:46;10.87;;;5.23;;
20283;SDS011;10301;50.832;4.080;2023-03-19T16:11:29;9.60;;;4.93;;
20283;SDS011;10301;50.832;4.080;2023-03-19T16:16:44;11.27;;;5.40;;
20283;SDS011;10301;50.832;4.080;2023-03-19T16:19:31;11.43;;;5.20;;
20283;SDS011;10301;50.832;4.080;2023-03-19T16:22:15;13.43;;;5.77;;
20283;SDS011;10301;50.832;4.080;2023-03-19T16:24:44;13.87;;;5.40;;
20283;SDS011;10301;50.832;4.080;2023-03-19T16:27:12;11.10;;;5.37;;
20283;SDS011;10301;50.832;4.080;2023-03-19T16:29:41;10.43;;;5.17;;
20283;SDS011;10301;50.832;4.080;2023-03-19T16:32:19;9.77;;;4.80;;
20283;SDS011;10301;50.832;4.080;2023-03-19T16:34:47;14.10;;;5.50;;
20283;SDS011;10301;50.832;4.080;2023-03-19T16:45:24;8.27;;;3.80;;
20283;SDS011;10301;50.832;4.080;2023-03-19T16:48:00;6.73;;;3.90;;
20283;SDS011;10301;50.832;4.080;2023-03-19T16:50:36;9.77;;;4.67;;
20283;SDS011;10301;50.832;4.080;2023-03-19T16:53:04;9.40;;;4.40;;
20283;SDS011;10301;50.832;4.080;2023-03-19T16:55:38;11.83;;;4.60;;
20283;SDS011;10301;50.832;4.080;2023-03-19T17:00:31;10.50;;;4.07;;
20283;SDS011;10301;50.832;4.080;2023-03-19T17:02:57;8.23;;;3.97;;
20283;SDS011;10301;50.832;4.080;2023-03-19T17:05:24;9.50;;;3.97;;
20283;SDS011;10301;50.832;4.080;2023-03-19T17:07:52;9.53;;;4.03;;
20283;SDS011;10301;50.832;4.080;2023-03-19T17:10:22;10.97;;;3.70;;
20283;SDS011;10301;50.832;4.080;2023-03-19T17:12:51;10.87;;;4.07;;
20283;SDS011;10301;50.832;4.080;2023-03-19T17:15:22;12.80;;;5.03;;